sensor_id;sensor_type;location;lat;lon;timestamp;temperature;humidity
15749;DHT22;7976;52.526;13.326;2023-07-29T00:02:01;18.60;99.90
15749;DHT22;7976;52.526;13.326;2023-07-29T00:04:28;18.60;99.90
15749;DHT22;7976;52.526;13.326;2023-07-29T00:06:55;18.60;99.90
15749;DHT22;7976;52.526;13.326;2023-07-29T00:09:21;18.60;99.90
15749;DHT22;7976;52.526;13.326;2023-07-29T00:11:48;18.60;99.90
15749;DHT22;7976;52.526;13.326;2023-07-29T00:14:15;18.50;99.90
15749;DHT22;7976;52.526;13.326;2023-07-29T00:16:42;18.50;99.90
15749;DHT22;7976;52.526;13.326;2023-07-29T00:19:10;18.50;99.90
15749;DHT22;7976;52.526;13.326;2023-07-29T00:21:37;18.50;99.90
15749;DHT22;7976;52.526;13.326;2023-07-29T00:24:04;18.50;99.90
15749;DHT22;7976;52.526;13.326;2023-07-29T00:26:31;18.50;99.90
15749;DHT22;7976;52.526;13.326;2023-07-29T00:28:58;18.40;99.90
15749;DHT22;7976;52.526;13.326;2023-07-29T00:31:25;18.40;99.90
15749;DHT22;7976;52.526;13.326;2023-07-29T00:33:51;18.40;99.90
15749;DHT22;7976;52.526;13.326;2023-07-29T00:36:21;18.40;99.90
15749;DHT22;7976;52.526;13.326;2023-07-29T00:38:47;18.40;99.90
15749;DHT22;7976;52.526;13.326;2023-07-29T00:41:15;18.40;99.90
15749;DHT22;7976;52.526;13.326;2023-07-29T00:43:42;18.40;99.90
15749;DHT22;7976;52.526;13.326;2023-07-29T00:46:09;18.40;99.90
15749;DHT22;7976;52.526;13.326;2023-07-29T00:48:38;18.40;99.90
15749;DHT22;7976;52.526;13.326;2023-07-29T00:51:05;18.40;99.90
15749;DHT22;7976;52.526;13.326;2023-07-29T00:53:33;18.40;99.90
15749;DHT22;7976;52.526;13.326;2023-07-29T00:56:00;18.30;99.90
15749;DHT22;7976;52.526;13.326;2023-07-29T00:58:27;18.30;99.90
15749;DHT22;7976;52.526;13.326;2023-07-29T01:00:55;18.30;99.90
15749;DHT22;7976;52.526;13.326;2023-07-29T01:03:22;18.30;99.90
15749;DHT22;7976;52.526;13.326;2023-07-29T01:05:59;18.20;99.90
15749;DHT22;7976;52.526;13.326;2023-07-29T01:08:44;18.30;99.90
15749;DHT22;7976;52.526;13.326;2023-07-29T01:11:27;18.30;99.90
15749;DHT22;7976;52.526;13.326;2023-07-29T01:14:04;18.20;99.90
15749;DHT22;7976;52.526;13.326;2023-07-29T01:16:38;18.20;99.90
15749;DHT22;7976;52.526;13.326;2023-07-29T01:19:14;18.20;99.90
15749;DHT22;7976;52.526;13.326;2023-07-29T01:21:54;18.20;99.90
15749;DHT22;7976;52.526;13.326;2023-07-29T01:24:24;18.20;99.90
15749;DHT22;7976;52.526;13.326;2023-07-29T01:26:50;18.20;99.90
15749;DHT22;7976;52.526;13.326;2023-07-29T01:29:17;18.20;99.90
15749;DHT22;7976;52.526;13.326;2023-07-29T01:31:46;18.10;99.90
15749;DHT22;7976;52.526;13.326;2023-07-29T01:34:26;18.10;99.90
15749;DHT22;7976;52.526;13.326;2023-07-29T01:36:57;18.10;99.90
15749;DHT22;7976;52.526;13.326;2023-07-29T01:39:29;18.10;99.90
15749;DHT22;7976;52.526;13.326;2023-07-29T01:42:01;18.10;99.90
15749;DHT22;7976;52.526;13.326;2023-07-29T01:44:29;18.00;99.90
15749;DHT22;7976;52.526;13.326;2023-07-29T01:46:57;18.00;99.90
15749;DHT22;7976;52.526;13.326;2023-07-29T01:49:23;18.00;99.90
15749;DHT22;7976;52.526;13.326;2023-07-29T01:51:51;18.00;99.90
15749;DHT22;7976;52.526;13.326;2023-07-29T01:54:18;18.00;99.90
15749;DHT22;7976;52.526;13.326;2023-07-29T01:56:46;18.00;99.90
15749;DHT22;7976;52.526;13.326;2023-07-29T01:59:13;18.00;99.90
15749;DHT22;7976;52.526;13.326;2023-07-29T02:01:41;18.00;99.90
15749;DHT22;7976;52.526;13.326;2023-07-29T02:04:08;18.00;99.90
15749;DHT22;7976;52.526;13.326;2023-07-29T02:06:35;18.00;99.90
15749;DHT22;7976;52.526;13.326;2023-07-29T02:09:02;18.00;99.90
15749;DHT22;7976;52.526;13.326;2023-07-29T02:11:30;18.00;99.90
15749;DHT22;7976;52.526;13.326;2023-07-29T02:13:58;18.00;99.90
15749;DHT22;7976;52.526;13.326;2023-07-29T02:16:25;17.90;99.90
15749;DHT22;7976;52.526;13.326;2023-07-29T02:18:52;17.90;99.90
15749;DHT22;7976;52.526;13.326;2023-07-29T02:21:19;17.90;99.90
15749;DHT22;7976;52.526;13.326;2023-07-29T02:23:46;17.90;99.90
15749;DHT22;7976;52.526;13.326;2023-07-29T02:26:13;17.90;99.90
15749;DHT22;7976;52.526;13.326;2023-07-29T02:28:40;17.90;99.90
15749;DHT22;7976;52.526;13.326;2023-07-29T02:31:16;17.90;99.90
15749;DHT22;7976;52.526;13.326;2023-07-29T02:33:44;17.90;99.90
15749;DHT22;7976;52.526;13.326;2023-07-29T02:36:12;17.90;99.90
15749;DHT22;7976;52.526;13.326;2023-07-29T02:38:40;17.90;99.90
15749;DHT22;7976;52.526;13.326;2023-07-29T02:41:09;17.90;99.90
15749;DHT22;7976;52.526;13.326;2023-07-29T02:43:37;17.90;99.90
15749;DHT22;7976;52.526;13.326;2023-07-29T02:46:06;17.90;99.90
15749;DHT22;7976;52.526;13.326;2023-07-29T02:48:34;17.90;99.90
15749;DHT22;7976;52.526;13.326;2023-07-29T02:51:01;17.90;99.90
15749;DHT22;7976;52.526;13.326;2023-07-29T02:53:28;17.80;99.90
15749;DHT22;7976;52.526;13.326;2023-07-29T02:55:55;17.90;99.90
15749;DHT22;7976;52.526;13.326;2023-07-29T02:58:22;17.90;99.90
15749;DHT22;7976;52.526;13.326;2023-07-29T03:00:49;17.80;99.90
15749;DHT22;7976;52.526;13.326;2023-07-29T03:03:17;17.90;99.90
15749;DHT22;7976;52.526;13.326;2023-07-29T03:05:46;17.80;99.90
15749;DHT22;7976;52.526;13.326;2023-07-29T03:08:13;17.80;99.90
15749;DHT22;7976;52.526;13.326;2023-07-29T03:10:40;17.80;99.90
15749;DHT22;7976;52.526;13.326;2023-07-29T03:13:07;17.80;99.90
15749;DHT22;7976;52.526;13.326;2023-07-29T03:15:34;17.70;99.90
15749;DHT22;7976;52.526;13.326;2023-07-29T03:18:01;17.70;99.90
15749;DHT22;7976;52.526;13.326;2023-07-29T03:20:28;17.70;99.90
15749;DHT22;7976;52.526;13.326;2023-07-29T03:22:56;17.70;99.90
15749;DHT22;7976;52.526;13.326;2023-07-29T03:25:23;17.60;99.90
15749;DHT22;7976;52.526;13.326;2023-07-29T03:27:50;17.60;99.90
15749;DHT22;7976;52.526;13.326;2023-07-29T03:30:19;17.60;99.90
15749;DHT22;7976;52.526;13.326;2023-07-29T03:32:48;17.70;99.90
15749;DHT22;7976;52.526;13.326;2023-07-29T03:35:16;17.70;99.90
15749;DHT22;7976;52.526;13.326;2023-07-29T03:37:43;17.60;99.90
15749;DHT22;7976;52.526;13.326;2023-07-29T03:40:11;17.60;99.90
15749;DHT22;7976;52.526;13.326;2023-07-29T03:42:38;17.60;99.90
15749;DHT22;7976;52.526;13.326;2023-07-29T03:45:06;17.60;99.90
15749;DHT22;7976;52.526;13.326;2023-07-29T03:47:33;17.60;99.90
15749;DHT22;7976;52.526;13.326;2023-07-29T03:50:02;17.60;99.90
15749;DHT22;7976;52.526;13.326;2023-07-29T03:52:29;17.60;99.90
15749;DHT22;7976;52.526;13.326;2023-07-29T03:54:56;17.60;99.90
15749;DHT22;7976;52.526;13.326;2023-07-29T03:57:25;17.60;99.90
15749;DHT22;7976;52.526;13.326;2023-07-29T03:59:52;17.60;99.90
15749;DHT22;7976;52.526;13.326;2023-07-29T04:02:19;17.60;99.90
15749;DHT22;7976;52.526;13.326;2023-07-29T04:04:46;17.70;99.90
15749;DHT22;7976;52.526;13.326;2023-07-29T04:07:13;17.70;99.90
15749;DHT22;7976;52.526;13.326;2023-07-29T04:09:40;17.70;99.90
15749;DHT22;7976;52.526;13.326;2023-07-29T04:12:08;17.70;99.90
15749;DHT22;7976;52.526;13.326;2023-07-29T04:14:37;17.70;99.90
15749;DHT22;7976;52.526;13.326;2023-07-29T04:17:05;17.70;99.90
15749;DHT22;7976;52.526;13.326;2023-07-29T04:19:32;17.70;99.90
15749;DHT22;7976;52.526;13.326;2023-07-29T04:21:59;17.70;99.90
15749;DHT22;7976;52.526;13.326;2023-07-29T04:24:26;17.70;99.90
15749;DHT22;7976;52.526;13.326;2023-07-29T04:26:53;17.70;99.90
15749;DHT22;7976;52.526;13.326;2023-07-29T04:29:20;17.70;99.90
15749;DHT22;7976;52.526;13.326;2023-07-29T04:31:49;17.80;99.90
15749;DHT22;7976;52.526;13.326;2023-07-29T04:34:17;17.80;99.90
15749;DHT22;7976;52.526;13.326;2023-07-29T04:36:44;17.80;99.90
15749;DHT22;7976;52.526;13.326;2023-07-29T04:39:11;17.90;99.90
15749;DHT22;7976;52.526;13.326;2023-07-29T04:41:38;17.90;99.90
15749;DHT22;7976;52.526;13.326;2023-07-29T04:44:05;18.00;99.90
15749;DHT22;7976;52.526;13.326;2023-07-29T04:46:32;18.00;99.90
15749;DHT22;7976;52.526;13.326;2023-07-29T04:49:00;18.00;99.90
15749;DHT22;7976;52.526;13.326;2023-07-29T04:51:28;18.10;99.90
15749;DHT22;7976;52.526;13.326;2023-07-29T04:53:55;18.10;99.90
15749;DHT22;7976;52.526;13.326;2023-07-29T04:56:22;18.20;99.90
15749;DHT22;7976;52.526;13.326;2023-07-29T04:58:49;18.30;99.90
15749;DHT22;7976;52.526;13.326;2023-07-29T05:01:16;18.30;99.90
15749;DHT22;7976;52.526;13.326;2023-07-29T05:03:44;18.30;99.90
15749;DHT22;7976;52.526;13.326;2023-07-29T05:06:13;18.40;99.90
15749;DHT22;7976;52.526;13.326;2023-07-29T05:08:40;18.40;99.90
15749;DHT22;7976;52.526;13.326;2023-07-29T05:11:07;18.50;99.90
15749;DHT22;7976;52.526;13.326;2023-07-29T05:13:34;18.60;99.90
15749;DHT22;7976;52.526;13.326;2023-07-29T05:16:00;18.60;99.90
15749;DHT22;7976;52.526;13.326;2023-07-29T05:18:28;18.60;99.90
15749;DHT22;7976;52.526;13.326;2023-07-29T05:20:55;18.60;99.90
15749;DHT22;7976;52.526;13.326;2023-07-29T05:23:23;18.60;99.90
15749;DHT22;7976;52.526;13.326;2023-07-29T05:25:50;18.60;99.90
15749;DHT22;7976;52.526;13.326;2023-07-29T05:28:17;18.70;99.90
15749;DHT22;7976;52.526;13.326;2023-07-29T05:30:44;18.70;99.90
15749;DHT22;7976;52.526;13.326;2023-07-29T05:33:11;18.80;99.90
15749;DHT22;7976;52.526;13.326;2023-07-29T05:35:39;18.80;99.90
15749;DHT22;7976;52.526;13.326;2023-07-29T05:38:06;18.90;99.90
15749;DHT22;7976;52.526;13.326;2023-07-29T05:40:35;18.90;99.90
15749;DHT22;7976;52.526;13.326;2023-07-29T05:43:03;18.90;99.90
15749;DHT22;7976;52.526;13.326;2023-07-29T05:45:30;18.90;99.90
15749;DHT22;7976;52.526;13.326;2023-07-29T05:47:57;18.80;99.90
15749;DHT22;7976;52.526;13.326;2023-07-29T05:50:24;18.80;99.90
15749;DHT22;7976;52.526;13.326;2023-07-29T05:52:51;18.80;99.90
15749;DHT22;7976;52.526;13.326;2023-07-29T05:55:17;18.80;99.90
15749;DHT22;7976;52.526;13.326;2023-07-29T05:57:46;18.90;99.90
15749;DHT22;7976;52.526;13.326;2023-07-29T06:00:13;18.90;99.90
15749;DHT22;7976;52.526;13.326;2023-07-29T06:02:40;18.90;99.90
15749;DHT22;7976;52.526;13.326;2023-07-29T06:05:10;19.00;99.90
15749;DHT22;7976;52.526;13.326;2023-07-29T06:07:36;19.00;99.90
15749;DHT22;7976;52.526;13.326;2023-07-29T06:10:04;19.00;99.90
15749;DHT22;7976;52.526;13.326;2023-07-29T06:12:31;19.10;99.90
15749;DHT22;7976;52.526;13.326;2023-07-29T06:14:59;19.10;99.90
15749;DHT22;7976;52.526;13.326;2023-07-29T06:17:26;19.20;99.90
15749;DHT22;7976;52.526;13.326;2023-07-29T06:19:53;19.20;99.90
15749;DHT22;7976;52.526;13.326;2023-07-29T06:22:19;19.30;99.90
15749;DHT22;7976;52.526;13.326;2023-07-29T06:24:46;19.30;99.90
15749;DHT22;7976;52.526;13.326;2023-07-29T06:27:13;19.30;99.90
15749;DHT22;7976;52.526;13.326;2023-07-29T06:29:40;19.40;99.90
15749;DHT22;7976;52.526;13.326;2023-07-29T06:32:08;19.40;99.90
15749;DHT22;7976;52.526;13.326;2023-07-29T06:34:35;19.50;99.90
15749;DHT22;7976;52.526;13.326;2023-07-29T06:37:02;19.50;99.90
15749;DHT22;7976;52.526;13.326;2023-07-29T06:39:29;19.60;99.90
15749;DHT22;7976;52.526;13.326;2023-07-29T06:41:55;19.60;99.90
15749;DHT22;7976;52.526;13.326;2023-07-29T06:44:22;19.60;99.90
15749;DHT22;7976;52.526;13.326;2023-07-29T06:46:49;19.70;99.90
15749;DHT22;7976;52.526;13.326;2023-07-29T06:49:17;19.80;99.90
15749;DHT22;7976;52.526;13.326;2023-07-29T06:51:44;19.80;99.90
15749;DHT22;7976;52.526;13.326;2023-07-29T06:54:11;19.90;99.90
15749;DHT22;7976;52.526;13.326;2023-07-29T06:56:38;19.90;99.90
15749;DHT22;7976;52.526;13.326;2023-07-29T06:59:04;20.10;99.90
15749;DHT22;7976;52.526;13.326;2023-07-29T07:01:31;20.20;99.90
15749;DHT22;7976;52.526;13.326;2023-07-29T07:03:58;20.20;99.90
15749;DHT22;7976;52.526;13.326;2023-07-29T07:06:26;20.30;99.90
15749;DHT22;7976;52.526;13.326;2023-07-29T07:08:53;20.40;99.90
15749;DHT22;7976;52.526;13.326;2023-07-29T07:11:20;20.50;99.90
15749;DHT22;7976;52.526;13.326;2023-07-29T07:13:46;20.50;99.90
15749;DHT22;7976;52.526;13.326;2023-07-29T07:16:13;20.60;99.90
15749;DHT22;7976;52.526;13.326;2023-07-29T07:18:40;20.60;99.90
15749;DHT22;7976;52.526;13.326;2023-07-29T07:21:07;20.60;99.90
15749;DHT22;7976;52.526;13.326;2023-07-29T07:23:38;20.60;99.90
15749;DHT22;7976;52.526;13.326;2023-07-29T07:26:06;20.60;99.90
15749;DHT22;7976;52.526;13.326;2023-07-29T07:28:32;20.70;99.90
15749;DHT22;7976;52.526;13.326;2023-07-29T07:30:59;20.70;99.90
15749;DHT22;7976;52.526;13.326;2023-07-29T07:33:26;20.70;99.90
15749;DHT22;7976;52.526;13.326;2023-07-29T07:35:53;20.70;99.90
15749;DHT22;7976;52.526;13.326;2023-07-29T07:38:19;20.70;99.90
15749;DHT22;7976;52.526;13.326;2023-07-29T07:40:53;20.80;99.90
15749;DHT22;7976;52.526;13.326;2023-07-29T07:43:21;20.80;99.90
15749;DHT22;7976;52.526;13.326;2023-07-29T07:45:48;20.80;99.90
15749;DHT22;7976;52.526;13.326;2023-07-29T07:48:15;20.90;99.90
15749;DHT22;7976;52.526;13.326;2023-07-29T07:50:42;20.90;99.90
15749;DHT22;7976;52.526;13.326;2023-07-29T07:53:09;20.90;99.90
15749;DHT22;7976;52.526;13.326;2023-07-29T07:55:36;20.90;99.90
15749;DHT22;7976;52.526;13.326;2023-07-29T07:58:04;20.90;99.90
15749;DHT22;7976;52.526;13.326;2023-07-29T08:00:31;21.00;99.90
15749;DHT22;7976;52.526;13.326;2023-07-29T08:02:58;21.00;99.90
15749;DHT22;7976;52.526;13.326;2023-07-29T08:05:25;21.00;99.90
15749;DHT22;7976;52.526;13.326;2023-07-29T08:07:52;21.10;99.90
15749;DHT22;7976;52.526;13.326;2023-07-29T08:10:18;21.20;99.90
15749;DHT22;7976;52.526;13.326;2023-07-29T08:12:45;21.30;99.90
15749;DHT22;7976;52.526;13.326;2023-07-29T08:15:13;21.40;99.90
15749;DHT22;7976;52.526;13.326;2023-07-29T08:17:40;21.60;99.90
15749;DHT22;7976;52.526;13.326;2023-07-29T08:20:08;21.70;99.90
15749;DHT22;7976;52.526;13.326;2023-07-29T08:22:35;21.70;99.90
15749;DHT22;7976;52.526;13.326;2023-07-29T08:25:02;21.80;99.90
15749;DHT22;7976;52.526;13.326;2023-07-29T08:27:29;21.80;99.90
15749;DHT22;7976;52.526;13.326;2023-07-29T08:29:56;21.70;99.90
15749;DHT22;7976;52.526;13.326;2023-07-29T08:32:24;21.70;99.90
15749;DHT22;7976;52.526;13.326;2023-07-29T08:34:51;21.70;99.90
15749;DHT22;7976;52.526;13.326;2023-07-29T08:37:18;21.70;99.90
15749;DHT22;7976;52.526;13.326;2023-07-29T08:39:45;21.70;99.90
15749;DHT22;7976;52.526;13.326;2023-07-29T08:42:12;21.80;99.90
15749;DHT22;7976;52.526;13.326;2023-07-29T08:44:42;21.80;99.90
15749;DHT22;7976;52.526;13.326;2023-07-29T08:47:09;21.90;99.90
15749;DHT22;7976;52.526;13.326;2023-07-29T08:49:40;21.90;99.90
15749;DHT22;7976;52.526;13.326;2023-07-29T08:52:09;21.90;99.90
15749;DHT22;7976;52.526;13.326;2023-07-29T08:54:37;21.80;99.90
15749;DHT22;7976;52.526;13.326;2023-07-29T08:57:05;21.80;99.90
15749;DHT22;7976;52.526;13.326;2023-07-29T08:59:33;21.70;99.90
15749;DHT22;7976;52.526;13.326;2023-07-29T09:02:00;21.70;99.90
15749;DHT22;7976;52.526;13.326;2023-07-29T09:04:27;21.70;99.90
15749;DHT22;7976;52.526;13.326;2023-07-29T09:06:56;21.70;99.90
15749;DHT22;7976;52.526;13.326;2023-07-29T09:09:25;21.80;99.90
15749;DHT22;7976;52.526;13.326;2023-07-29T09:11:52;21.90;99.90
15749;DHT22;7976;52.526;13.326;2023-07-29T09:14:20;21.90;99.90
15749;DHT22;7976;52.526;13.326;2023-07-29T09:16:47;22.00;99.90
15749;DHT22;7976;52.526;13.326;2023-07-29T09:19:14;22.00;99.90
15749;DHT22;7976;52.526;13.326;2023-07-29T09:21:42;22.00;99.90
15749;DHT22;7976;52.526;13.326;2023-07-29T09:24:10;22.00;99.90
15749;DHT22;7976;52.526;13.326;2023-07-29T09:26:38;22.00;99.90
15749;DHT22;7976;52.526;13.326;2023-07-29T09:29:15;22.00;99.90
15749;DHT22;7976;52.526;13.326;2023-07-29T09:31:41;22.00;99.90
15749;DHT22;7976;52.526;13.326;2023-07-29T09:34:08;22.00;99.90
15749;DHT22;7976;52.526;13.326;2023-07-29T09:36:35;22.10;99.90
15749;DHT22;7976;52.526;13.326;2023-07-29T09:39:02;22.20;99.90
15749;DHT22;7976;52.526;13.326;2023-07-29T09:41:30;22.30;99.90
15749;DHT22;7976;52.526;13.326;2023-07-29T09:43:59;22.40;99.90
15749;DHT22;7976;52.526;13.326;2023-07-29T09:46:33;22.40;99.90
15749;DHT22;7976;52.526;13.326;2023-07-29T09:49:02;22.50;99.90
15749;DHT22;7976;52.526;13.326;2023-07-29T09:51:29;22.50;99.90
15749;DHT22;7976;52.526;13.326;2023-07-29T09:53:56;22.40;99.90
15749;DHT22;7976;52.526;13.326;2023-07-29T09:56:26;22.40;99.90
15749;DHT22;7976;52.526;13.326;2023-07-29T09:58:55;22.40;99.90
15749;DHT22;7976;52.526;13.326;2023-07-29T10:01:23;22.40;99.90
15749;DHT22;7976;52.526;13.326;2023-07-29T10:03:50;22.50;99.90
15749;DHT22;7976;52.526;13.326;2023-07-29T10:06:18;22.50;99.90
15749;DHT22;7976;52.526;13.326;2023-07-29T10:08:47;22.60;99.90
15749;DHT22;7976;52.526;13.326;2023-07-29T10:11:16;22.70;99.90
15749;DHT22;7976;52.526;13.326;2023-07-29T10:13:46;22.70;99.90
15749;DHT22;7976;52.526;13.326;2023-07-29T10:16:15;22.80;99.90
15749;DHT22;7976;52.526;13.326;2023-07-29T10:18:42;22.90;99.90
15749;DHT22;7976;52.526;13.326;2023-07-29T10:21:11;23.00;99.90
15749;DHT22;7976;52.526;13.326;2023-07-29T10:23:43;23.00;99.90
15749;DHT22;7976;52.526;13.326;2023-07-29T10:26:16;22.90;99.90
15749;DHT22;7976;52.526;13.326;2023-07-29T10:28:47;22.80;99.90
15749;DHT22;7976;52.526;13.326;2023-07-29T10:31:21;22.70;99.90
15749;DHT22;7976;52.526;13.326;2023-07-29T10:33:49;22.60;99.90
15749;DHT22;7976;52.526;13.326;2023-07-29T10:36:17;22.60;99.90
15749;DHT22;7976;52.526;13.326;2023-07-29T10:38:45;22.60;99.90
15749;DHT22;7976;52.526;13.326;2023-07-29T10:41:11;22.70;99.90
15749;DHT22;7976;52.526;13.326;2023-07-29T10:43:38;22.80;99.90
15749;DHT22;7976;52.526;13.326;2023-07-29T10:46:15;22.90;99.90
15749;DHT22;7976;52.526;13.326;2023-07-29T10:48:52;23.00;99.90
15749;DHT22;7976;52.526;13.326;2023-07-29T10:51:28;23.10;99.90
15749;DHT22;7976;52.526;13.326;2023-07-29T10:53:59;23.00;99.90
15749;DHT22;7976;52.526;13.326;2023-07-29T10:56:29;23.00;99.90
15749;DHT22;7976;52.526;13.326;2023-07-29T10:59:22;22.90;99.90
15749;DHT22;7976;52.526;13.326;2023-07-29T11:01:59;22.70;99.90
15749;DHT22;7976;52.526;13.326;2023-07-29T11:04:29;22.60;99.90
15749;DHT22;7976;52.526;13.326;2023-07-29T11:07:20;22.40;99.90
15749;DHT22;7976;52.526;13.326;2023-07-29T11:09:58;22.30;99.90
15749;DHT22;7976;52.526;13.326;2023-07-29T11:12:43;22.20;99.90
15749;DHT22;7976;52.526;13.326;2023-07-29T11:15:20;21.90;99.90
15749;DHT22;7976;52.526;13.326;2023-07-29T11:17:50;21.20;99.90
15749;DHT22;7976;52.526;13.326;2023-07-29T11:20:21;20.50;99.90
15749;DHT22;7976;52.526;13.326;2023-07-29T11:22:49;19.80;99.90
15749;DHT22;7976;52.526;13.326;2023-07-29T11:25:18;19.40;99.90
15749;DHT22;7976;52.526;13.326;2023-07-29T11:27:45;19.30;99.90
15749;DHT22;7976;52.526;13.326;2023-07-29T11:30:15;19.20;99.90
15749;DHT22;7976;52.526;13.326;2023-07-29T11:32:43;19.20;99.90
15749;DHT22;7976;52.526;13.326;2023-07-29T11:35:12;19.20;99.90
15749;DHT22;7976;52.526;13.326;2023-07-29T11:37:44;19.30;99.90
15749;DHT22;7976;52.526;13.326;2023-07-29T11:40:14;19.40;99.90
15749;DHT22;7976;52.526;13.326;2023-07-29T11:42:42;19.50;99.90
15749;DHT22;7976;52.526;13.326;2023-07-29T11:45:10;19.60;99.90
15749;DHT22;7976;52.526;13.326;2023-07-29T11:47:37;19.60;99.90
15749;DHT22;7976;52.526;13.326;2023-07-29T11:50:08;19.70;99.90
15749;DHT22;7976;52.526;13.326;2023-07-29T11:52:42;19.70;99.90
15749;DHT22;7976;52.526;13.326;2023-07-29T11:55:11;19.70;99.90
15749;DHT22;7976;52.526;13.326;2023-07-29T11:57:39;19.70;99.90
15749;DHT22;7976;52.526;13.326;2023-07-29T12:00:09;19.70;99.90
15749;DHT22;7976;52.526;13.326;2023-07-29T12:02:38;19.70;99.90
15749;DHT22;7976;52.526;13.326;2023-07-29T12:05:08;19.70;99.90
15749;DHT22;7976;52.526;13.326;2023-07-29T12:07:38;19.70;99.90
15749;DHT22;7976;52.526;13.326;2023-07-29T12:10:07;19.70;99.90
15749;DHT22;7976;52.526;13.326;2023-07-29T12:12:44;19.70;99.90
15749;DHT22;7976;52.526;13.326;2023-07-29T12:15:11;19.80;99.90
15749;DHT22;7976;52.526;13.326;2023-07-29T12:17:40;19.80;99.90
15749;DHT22;7976;52.526;13.326;2023-07-29T12:20:09;19.90;99.90
15749;DHT22;7976;52.526;13.326;2023-07-29T12:22:36;19.90;99.90
15749;DHT22;7976;52.526;13.326;2023-07-29T12:25:04;20.00;99.90
15749;DHT22;7976;52.526;13.326;2023-07-29T12:27:34;20.10;99.90
15749;DHT22;7976;52.526;13.326;2023-07-29T12:30:01;20.10;99.90
15749;DHT22;7976;52.526;13.326;2023-07-29T12:32:29;20.20;99.90
15749;DHT22;7976;52.526;13.326;2023-07-29T12:34:56;20.20;99.90
15749;DHT22;7976;52.526;13.326;2023-07-29T12:37:31;20.30;99.90
15749;DHT22;7976;52.526;13.326;2023-07-29T12:39:58;20.30;99.90
15749;DHT22;7976;52.526;13.326;2023-07-29T12:42:25;20.40;99.90
15749;DHT22;7976;52.526;13.326;2023-07-29T12:44:53;20.50;99.90
15749;DHT22;7976;52.526;13.326;2023-07-29T12:47:20;20.70;99.90
15749;DHT22;7976;52.526;13.326;2023-07-29T12:49:47;20.80;99.90
15749;DHT22;7976;52.526;13.326;2023-07-29T12:52:14;20.90;99.90
15749;DHT22;7976;52.526;13.326;2023-07-29T12:54:40;21.10;99.90
15749;DHT22;7976;52.526;13.326;2023-07-29T12:57:09;21.20;99.90
15749;DHT22;7976;52.526;13.326;2023-07-29T12:59:36;21.30;99.90
15749;DHT22;7976;52.526;13.326;2023-07-29T13:02:04;21.30;99.90
15749;DHT22;7976;52.526;13.326;2023-07-29T13:04:31;21.20;99.90
15749;DHT22;7976;52.526;13.326;2023-07-29T13:06:58;21.20;99.90
15749;DHT22;7976;52.526;13.326;2023-07-29T13:09:25;21.30;99.90
15749;DHT22;7976;52.526;13.326;2023-07-29T13:11:52;21.40;99.90
15749;DHT22;7976;52.526;13.326;2023-07-29T13:14:19;21.40;99.90
15749;DHT22;7976;52.526;13.326;2023-07-29T13:16:45;21.30;99.90
15749;DHT22;7976;52.526;13.326;2023-07-29T13:19:13;21.20;99.90
15749;DHT22;7976;52.526;13.326;2023-07-29T13:21:40;21.30;99.90
15749;DHT22;7976;52.526;13.326;2023-07-29T13:24:07;21.40;99.90
15749;DHT22;7976;52.526;13.326;2023-07-29T13:26:34;21.40;99.90
15749;DHT22;7976;52.526;13.326;2023-07-29T13:29:01;21.50;99.90
15749;DHT22;7976;52.526;13.326;2023-07-29T13:31:29;21.50;99.90
15749;DHT22;7976;52.526;13.326;2023-07-29T13:33:56;21.40;99.90
15749;DHT22;7976;52.526;13.326;2023-07-29T13:36:24;21.40;99.90
15749;DHT22;7976;52.526;13.326;2023-07-29T13:38:51;21.50;99.90
15749;DHT22;7976;52.526;13.326;2023-07-29T13:41:18;21.50;99.90
15749;DHT22;7976;52.526;13.326;2023-07-29T13:43:45;21.50;99.90
15749;DHT22;7976;52.526;13.326;2023-07-29T13:46:11;21.50;99.90
15749;DHT22;7976;52.526;13.326;2023-07-29T13:48:38;21.60;99.90
15749;DHT22;7976;52.526;13.326;2023-07-29T13:51:05;21.60;99.90
15749;DHT22;7976;52.526;13.326;2023-07-29T13:53:33;21.50;99.90
15749;DHT22;7976;52.526;13.326;2023-07-29T13:56:00;21.40;99.90
15749;DHT22;7976;52.526;13.326;2023-07-29T13:58:26;21.50;99.90
15749;DHT22;7976;52.526;13.326;2023-07-29T14:00:53;21.40;99.90
15749;DHT22;7976;52.526;13.326;2023-07-29T14:03:20;21.40;99.90
15749;DHT22;7976;52.526;13.326;2023-07-29T14:05:47;21.50;99.90
15749;DHT22;7976;52.526;13.326;2023-07-29T14:08:14;21.40;99.90
15749;DHT22;7976;52.526;13.326;2023-07-29T14:10:42;21.40;99.90
15749;DHT22;7976;52.526;13.326;2023-07-29T14:13:08;21.40;99.90
15749;DHT22;7976;52.526;13.326;2023-07-29T14:15:36;21.40;99.90
15749;DHT22;7976;52.526;13.326;2023-07-29T14:18:03;21.40;99.90
15749;DHT22;7976;52.526;13.326;2023-07-29T14:20:29;21.40;99.90
15749;DHT22;7976;52.526;13.326;2023-07-29T14:22:56;21.40;99.90
15749;DHT22;7976;52.526;13.326;2023-07-29T14:25:23;21.40;99.90
15749;DHT22;7976;52.526;13.326;2023-07-29T14:27:51;21.50;99.90
15749;DHT22;7976;52.526;13.326;2023-07-29T14:30:18;21.50;99.90
15749;DHT22;7976;52.526;13.326;2023-07-29T14:32:45;21.50;99.90
15749;DHT22;7976;52.526;13.326;2023-07-29T14:35:12;21.50;99.90
15749;DHT22;7976;52.526;13.326;2023-07-29T14:37:39;21.60;99.90
15749;DHT22;7976;52.526;13.326;2023-07-29T14:40:07;21.70;99.90
15749;DHT22;7976;52.526;13.326;2023-07-29T14:42:34;21.70;99.90
15749;DHT22;7976;52.526;13.326;2023-07-29T14:45:03;21.70;99.90
15749;DHT22;7976;52.526;13.326;2023-07-29T14:47:30;21.70;99.90
15749;DHT22;7976;52.526;13.326;2023-07-29T14:50:00;21.70;99.90
15749;DHT22;7976;52.526;13.326;2023-07-29T14:52:26;21.70;99.90
15749;DHT22;7976;52.526;13.326;2023-07-29T14:54:53;21.60;99.90
15749;DHT22;7976;52.526;13.326;2023-07-29T14:57:20;21.50;99.90
15749;DHT22;7976;52.526;13.326;2023-07-29T14:59:47;21.40;99.90
15749;DHT22;7976;52.526;13.326;2023-07-29T15:02:15;21.30;99.90
15749;DHT22;7976;52.526;13.326;2023-07-29T15:04:43;21.20;99.90
15749;DHT22;7976;52.526;13.326;2023-07-29T15:07:10;21.20;99.90
15749;DHT22;7976;52.526;13.326;2023-07-29T15:09:37;21.10;99.90
15749;DHT22;7976;52.526;13.326;2023-07-29T15:12:04;21.10;99.90
15749;DHT22;7976;52.526;13.326;2023-07-29T15:14:32;21.00;99.90
15749;DHT22;7976;52.526;13.326;2023-07-29T15:16:58;21.00;99.90
15749;DHT22;7976;52.526;13.326;2023-07-29T15:19:26;20.90;99.90
15749;DHT22;7976;52.526;13.326;2023-07-29T15:21:53;20.80;99.90
15749;DHT22;7976;52.526;13.326;2023-07-29T15:24:20;20.80;99.90
15749;DHT22;7976;52.526;13.326;2023-07-29T15:26:47;20.70;99.90
15749;DHT22;7976;52.526;13.326;2023-07-29T15:29:14;20.70;99.90
15749;DHT22;7976;52.526;13.326;2023-07-29T15:31:40;20.60;99.90
15749;DHT22;7976;52.526;13.326;2023-07-29T15:34:07;20.30;99.90
15749;DHT22;7976;52.526;13.326;2023-07-29T15:36:36;19.90;99.90